sensor_id;sensor_type;location;lat;lon;timestamp;P1;durP1;ratioP1;P2;durP2;ratioP2
72728;SDS011;60843;52.062;4.508;2022-11-06T00:01:15;12.50;;;3.40;;
72728;SDS011;60843;52.062;4.508;2022-11-06T00:03:45;7.32;;;2.88;;
72728;SDS011;60843;52.062;4.508;2022-11-06T00:06:21;9.05;;;3.15;;
72728;SDS011;60843;52.062;4.508;2022-11-06T00:09:07;6.47;;;3.10;;
72728;SDS011;60843;52.062;4.508;2022-11-06T00:11:38;10.60;;;4.00;;
72728;SDS011;60843;52.062;4.508;2022-11-06T00:14:08;9.43;;;3.28;;
72728;SDS011;60843;52.062;4.508;2022-11-06T00:16:35;6.50;;;3.33;;
72728;SDS011;60843;52.062;4.508;2022-11-06T00:19:05;6.38;;;2.88;;
72728;SDS011;60843;52.062;4.508;2022-11-06T00:21:33;9.32;;;3.83;;
72728;SDS011;60843;52.062;4.508;2022-11-06T00:24:02;9.07;;;2.95;;
72728;SDS011;60843;52.062;4.508;2022-11-06T00:26:41;8.55;;;2.80;;
72728;SDS011;60843;52.062;4.508;2022-11-06T00:29:07;8.35;;;3.25;;
72728;SDS011;60843;52.062;4.508;2022-11-06T00:31:38;9.40;;;2.95;;
72728;SDS011;60843;52.062;4.508;2022-11-06T00:34:04;13.80;;;4.30;;
72728;SDS011;60843;52.062;4.508;2022-11-06T00:36:33;9.25;;;3.10;;
72728;SDS011;60843;52.062;4.508;2022-11-06T00:38:59;7.85;;;3.42;;
72728;SDS011;60843;52.062;4.508;2022-11-06T00:41:31;8.35;;;2.97;;
72728;SDS011;60843;52.062;4.508;2022-11-06T00:44:00;7.68;;;3.40;;
72728;SDS011;60843;52.062;4.508;2022-11-06T00:46:26;6.28;;;3.45;;
72728;SDS011;60843;52.062;4.508;2022-11-06T00:48:55;10.20;;;3.50;;
72728;SDS011;60843;52.062;4.508;2022-11-06T00:51:23;15.30;;;3.63;;
72728;SDS011;60843;52.062;4.508;2022-11-06T00:53:59;12.82;;;3.33;;
72728;SDS011;60843;52.062;4.508;2022-11-06T00:56:26;11.45;;;3.40;;
72728;SDS011;60843;52.062;4.508;2022-11-06T00:58:59;12.07;;;3.45;;
72728;SDS011;60843;52.062;4.508;2022-11-06T01:01:30;11.77;;;3.08;;
72728;SDS011;60843;52.062;4.508;2022-11-06T01:06:33;13.40;;;4.32;;
72728;SDS011;60843;52.062;4.508;2022-11-06T01:09:00;9.40;;;3.92;;
72728;SDS011;60843;52.062;4.508;2022-11-06T01:14:00;10.35;;;3.42;;
72728;SDS011;60843;52.062;4.508;2022-11-06T01:16:27;7.88;;;4.03;;
72728;SDS011;60843;52.062;4.508;2022-11-06T01:18:54;9.48;;;4.00;;
72728;SDS011;60843;52.062;4.508;2022-11-06T01:21:23;9.85;;;4.85;;
72728;SDS011;60843;52.062;4.508;2022-11-06T01:23:54;13.38;;;4.15;;
72728;SDS011;60843;52.062;4.508;2022-11-06T01:26:25;12.75;;;3.92;;
72728;SDS011;60843;52.062;4.508;2022-11-06T01:28:51;8.80;;;3.95;;
72728;SDS011;60843;52.062;4.508;2022-11-06T01:31:18;10.32;;;3.72;;
72728;SDS011;60843;52.062;4.508;2022-11-06T01:33:49;11.88;;;3.85;;
72728;SDS011;60843;52.062;4.508;2022-11-06T01:36:19;11.20;;;4.25;;
72728;SDS011;60843;52.062;4.508;2022-11-06T01:38:46;12.90;;;3.85;;
72728;SDS011;60843;52.062;4.508;2022-11-06T01:41:14;7.97;;;3.80;;
72728;SDS011;60843;52.062;4.508;2022-11-06T01:43:48;10.60;;;4.10;;
72728;SDS011;60843;52.062;4.508;2022-11-06T01:46:24;9.50;;;3.72;;
72728;SDS011;60843;52.062;4.508;2022-11-06T01:48:58;12.30;;;3.70;;
72728;SDS011;60843;52.062;4.508;2022-11-06T01:53:55;9.40;;;3.55;;
72728;SDS011;60843;52.062;4.508;2022-11-06T01:56:21;14.82;;;3.97;;
72728;SDS011;60843;52.062;4.508;2022-11-06T01:58:48;8.55;;;3.90;;
72728;SDS011;60843;52.062;4.508;2022-11-06T02:01:16;9.13;;;3.92;;
72728;SDS011;60843;52.062;4.508;2022-11-06T02:03:45;8.85;;;3.90;;
72728;SDS011;60843;52.062;4.508;2022-11-06T02:06:32;10.65;;;3.90;;
72728;SDS011;60843;52.062;4.508;2022-11-06T02:08:59;15.57;;;3.95;;
72728;SDS011;60843;52.062;4.508;2022-11-06T02:11:25;8.63;;;3.53;;
72728;SDS011;60843;52.062;4.508;2022-11-06T02:14:01;12.43;;;3.70;;
72728;SDS011;60843;52.062;4.508;2022-11-06T02:17:03;12.32;;;3.78;;
72728;SDS011;60843;52.062;4.508;2022-11-06T02:27:27;10.35;;;4.38;;
72728;SDS011;60843;52.062;4.508;2022-11-06T02:30:06;12.20;;;4.75;;
72728;SDS011;60843;52.062;4.508;2022-11-06T02:35:17;12.18;;;4.90;;
72728;SDS011;60843;52.062;4.508;2022-11-06T02:37:47;20.38;;;5.03;;
72728;SDS011;60843;52.062;4.508;2022-11-06T02:40:17;12.57;;;4.55;;
72728;SDS011;60843;52.062;4.508;2022-11-06T02:42:45;13.90;;;5.28;;
72728;SDS011;60843;52.062;4.508;2022-11-06T02:45:12;14.15;;;5.22;;
72728;SDS011;60843;52.062;4.508;2022-11-06T02:47:38;11.30;;;4.72;;
72728;SDS011;60843;52.062;4.508;2022-11-06T02:55:37;13.43;;;5.80;;
72728;SDS011;60843;52.062;4.508;2022-11-06T02:58:09;23.98;;;8.18;;
72728;SDS011;60843;52.062;4.508;2022-11-06T03:01:01;13.85;;;5.53;;
72728;SDS011;60843;52.062;4.508;2022-11-06T03:03:31;15.77;;;5.40;;
72728;SDS011;60843;52.062;4.508;2022-11-06T03:06:21;16.98;;;6.50;;
72728;SDS011;60843;52.062;4.508;2022-11-06T03:08:50;17.70;;;5.85;;
72728;SDS011;60843;52.062;4.508;2022-11-06T03:11:28;19.38;;;5.55;;
72728;SDS011;60843;52.062;4.508;2022-11-06T03:14:05;16.20;;;5.72;;
72728;SDS011;60843;52.062;4.508;2022-11-06T03:16:48;8.82;;;5.43;;
72728;SDS011;60843;52.062;4.508;2022-11-06T03:25:04;15.05;;;6.18;;
72728;SDS011;60843;52.062;4.508;2022-11-06T03:30:43;12.98;;;6.53;;
72728;SDS011;60843;52.062;4.508;2022-11-06T03:33:16;15.30;;;6.82;;
72728;SDS011;60843;52.062;4.508;2022-11-06T03:36:09;15.60;;;6.25;;
72728;SDS011;60843;52.062;4.508;2022-11-06T03:38:49;13.77;;;6.68;;
72728;SDS011;60843;52.062;4.508;2022-11-06T03:41:25;18.17;;;7.60;;
72728;SDS011;60843;52.062;4.508;2022-11-06T03:43:55;13.77;;;6.35;;
72728;SDS011;60843;52.062;4.508;2022-11-06T03:46:22;15.07;;;7.60;;
72728;SDS011;60843;52.062;4.508;2022-11-06T03:49:00;14.50;;;7.57;;
72728;SDS011;60843;52.062;4.508;2022-11-06T03:51:31;20.00;;;7.97;;
72728;SDS011;60843;52.062;4.508;2022-11-06T03:54:17;17.17;;;9.57;;
72728;SDS011;60843;52.062;4.508;2022-11-06T03:56:47;19.02;;;7.78;;
72728;SDS011;60843;52.062;4.508;2022-11-06T03:59:20;15.23;;;7.88;;
72728;SDS011;60843;52.062;4.508;2022-11-06T04:01:49;22.80;;;7.65;;
72728;SDS011;60843;52.062;4.508;2022-11-06T04:07:22;24.42;;;7.15;;
72728;SDS011;60843;52.062;4.508;2022-11-06T04:09:54;17.88;;;7.15;;
72728;SDS011;60843;52.062;4.508;2022-11-06T04:12:40;23.13;;;8.10;;
72728;SDS011;60843;52.062;4.508;2022-11-06T04:15:33;17.85;;;7.35;;
72728;SDS011;60843;52.062;4.508;2022-11-06T04:18:09;15.85;;;6.50;;
72728;SDS011;60843;52.062;4.508;2022-11-06T04:20:37;13.82;;;6.43;;
72728;SDS011;60843;52.062;4.508;2022-11-06T04:26:46;16.83;;;5.88;;
72728;SDS011;60843;52.062;4.508;2022-11-06T04:29:41;14.85;;;6.80;;
72728;SDS011;60843;52.062;4.508;2022-11-06T04:32:15;14.50;;;6.38;;
72728;SDS011;60843;52.062;4.508;2022-11-06T04:34:49;18.75;;;6.47;;
72728;SDS011;60843;52.062;4.508;2022-11-06T04:37:31;21.63;;;6.60;;
72728;SDS011;60843;52.062;4.508;2022-11-06T04:42:57;16.67;;;6.38;;
72728;SDS011;60843;52.062;4.508;2022-11-06T04:45:24;18.50;;;7.40;;
72728;SDS011;60843;52.062;4.508;2022-11-06T04:47:54;14.82;;;6.93;;
72728;SDS011;60843;52.062;4.508;2022-11-06T04:50:20;17.50;;;7.38;;
72728;SDS011;60843;52.062;4.508;2022-11-06T04:52:47;15.52;;;6.40;;
72728;SDS011;60843;52.062;4.508;2022-11-06T04:55:13;11.38;;;5.70;;
72728;SDS011;60843;52.062;4.508;2022-11-06T04:57:39;16.98;;;5.90;;
72728;SDS011;60843;52.062;4.508;2022-11-06T05:00:04;10.93;;;5.30;;
72728;SDS011;60843;52.062;4.508;2022-11-06T05:02:31;11.52;;;5.57;;
72728;SDS011;60843;52.062;4.508;2022-11-06T05:04:57;12.60;;;5.32;;
72728;SDS011;60843;52.062;4.508;2022-11-06T05:07:23;14.48;;;5.22;;
72728;SDS011;60843;52.062;4.508;2022-11-06T05:09:48;13.35;;;4.60;;
72728;SDS011;60843;52.062;4.508;2022-11-06T05:12:16;10.70;;;5.10;;
72728;SDS011;60843;52.062;4.508;2022-11-06T05:14:42;12.93;;;4.93;;
72728;SDS011;60843;52.062;4.508;2022-11-06T05:17:07;12.77;;;4.88;;
72728;SDS011;60843;52.062;4.508;2022-11-06T05:19:33;13.53;;;4.33;;
72728;SDS011;60843;52.062;4.508;2022-11-06T05:21:58;10.32;;;4.63;;
72728;SDS011;60843;52.062;4.508;2022-11-06T05:24:42;8.30;;;4.72;;
72728;SDS011;60843;52.062;4.508;2022-11-06T05:27:08;11.65;;;4.22;;
72728;SDS011;60843;52.062;4.508;2022-11-06T05:29:34;9.80;;;4.80;;
72728;SDS011;60843;52.062;4.508;2022-11-06T05:31:59;9.93;;;4.68;;
72728;SDS011;60843;52.062;4.508;2022-11-06T05:34:25;11.82;;;5.05;;
72728;SDS011;60843;52.062;4.508;2022-11-06T05:36:50;10.13;;;4.07;;
72728;SDS011;60843;52.062;4.508;2022-11-06T05:39:16;8.13;;;4.07;;
72728;SDS011;60843;52.062;4.508;2022-11-06T05:41:42;11.18;;;4.07;;
72728;SDS011;60843;52.062;4.508;2022-11-06T05:44:07;11.50;;;4.22;;
72728;SDS011;60843;52.062;4.508;2022-11-06T05:46:33;17.25;;;4.45;;
72728;SDS011;60843;52.062;4.508;2022-11-06T05:48:59;7.45;;;3.70;;
72728;SDS011;60843;52.062;4.508;2022-11-06T05:51:24;11.68;;;4.40;;
72728;SDS011;60843;52.062;4.508;2022-11-06T05:53:50;10.75;;;4.30;;
72728;SDS011;60843;52.062;4.508;2022-11-06T05:56:16;9.65;;;3.55;;
72728;SDS011;60843;52.062;4.508;2022-11-06T05:58:44;11.30;;;4.05;;
72728;SDS011;60843;52.062;4.508;2022-11-06T06:01:13;8.05;;;4.05;;
72728;SDS011;60843;52.062;4.508;2022-11-06T06:03:40;9.20;;;3.85;;
72728;SDS011;60843;52.062;4.508;2022-11-06T06:06:06;9.93;;;4.07;;
72728;SDS011;60843;52.062;4.508;2022-11-06T06:08:31;10.88;;;3.78;;
72728;SDS011;60843;52.062;4.508;2022-11-06T06:10:59;7.22;;;3.55;;
72728;SDS011;60843;52.062;4.508;2022-11-06T06:13:30;9.65;;;4.15;;
72728;SDS011;60843;52.062;4.508;2022-11-06T06:16:00;11.68;;;3.33;;
72728;SDS011;60843;52.062;4.508;2022-11-06T06:18:27;7.22;;;3.97;;
72728;SDS011;60843;52.062;4.508;2022-11-06T06:20:52;11.30;;;3.55;;
72728;SDS011;60843;52.062;4.508;2022-11-06T06:23:17;8.82;;;3.90;;
72728;SDS011;60843;52.062;4.508;2022-11-06T06:25:45;10.80;;;3.38;;
72728;SDS011;60843;52.062;4.508;2022-11-06T06:28:11;6.88;;;2.97;;
72728;SDS011;60843;52.062;4.508;2022-11-06T06:30:37;7.82;;;3.58;;
72728;SDS011;60843;52.062;4.508;2022-11-06T06:33:03;7.88;;;3.25;;
72728;SDS011;60843;52.062;4.508;2022-11-06T06:35:30;4.57;;;3.03;;
72728;SDS011;60843;52.062;4.508;2022-11-06T06:37:56;4.47;;;2.60;;
72728;SDS011;60843;52.062;4.508;2022-11-06T06:40:22;9.95;;;2.90;;
72728;SDS011;60843;52.062;4.508;2022-11-06T06:42:48;10.00;;;3.75;;
72728;SDS011;60843;52.062;4.508;2022-11-06T06:45:14;6.63;;;2.80;;
72728;SDS011;60843;52.062;4.508;2022-11-06T06:47:40;7.40;;;2.97;;
72728;SDS011;60843;52.062;4.508;2022-11-06T06:50:06;5.47;;;2.65;;
72728;SDS011;60843;52.062;4.508;2022-11-06T06:52:32;9.48;;;3.08;;
72728;SDS011;60843;52.062;4.508;2022-11-06T06:54:58;4.97;;;2.67;;
72728;SDS011;60843;52.062;4.508;2022-11-06T06:57:23;8.70;;;3.03;;
72728;SDS011;60843;52.062;4.508;2022-11-06T06:59:49;10.52;;;3.03;;
72728;SDS011;60843;52.062;4.508;2022-11-06T07:02:14;8.93;;;2.78;;
72728;SDS011;60843;52.062;4.508;2022-11-06T07:04:40;9.50;;;2.47;;
72728;SDS011;60843;52.062;4.508;2022-11-06T07:07:05;7.05;;;2.15;;
72728;SDS011;60843;52.062;4.508;2022-11-06T07:09:31;5.40;;;2.60;;
72728;SDS011;60843;52.062;4.508;2022-11-06T07:11:57;7.85;;;3.28;;
72728;SDS011;60843;52.062;4.508;2022-11-06T07:14:23;9.73;;;2.38;;
72728;SDS011;60843;52.062;4.508;2022-11-06T07:16:48;6.03;;;2.35;;
72728;SDS011;60843;52.062;4.508;2022-11-06T07:19:17;10.15;;;2.63;;
72728;SDS011;60843;52.062;4.508;2022-11-06T07:21:43;5.90;;;2.22;;
72728;SDS011;60843;52.062;4.508;2022-11-06T07:24:12;5.05;;;2.17;;
72728;SDS011;60843;52.062;4.508;2022-11-06T07:26:37;8.52;;;2.13;;
72728;SDS011;60843;52.062;4.508;2022-11-06T07:29:05;9.45;;;2.40;;
72728;SDS011;60843;52.062;4.508;2022-11-06T07:31:32;7.50;;;2.28;;
72728;SDS011;60843;52.062;4.508;2022-11-06T07:34:00;6.95;;;2.38;;
72728;SDS011;60843;52.062;4.508;2022-11-06T07:36:25;6.53;;;1.77;;
72728;SDS011;60843;52.062;4.508;2022-11-06T07:38:51;9.82;;;2.38;;
72728;SDS011;60843;52.062;4.508;2022-11-06T07:41:17;8.82;;;2.55;;
72728;SDS011;60843;52.062;4.508;2022-11-06T07:43:42;5.82;;;2.00;;
72728;SDS011;60843;52.062;4.508;2022-11-06T07:46:09;9.55;;;1.90;;
72728;SDS011;60843;52.062;4.508;2022-11-06T07:48:44;6.93;;;1.92;;
72728;SDS011;60843;52.062;4.508;2022-11-06T07:51:36;11.98;;;2.67;;
72728;SDS011;60843;52.062;4.508;2022-11-06T07:54:06;5.43;;;1.80;;
72728;SDS011;60843;52.062;4.508;2022-11-06T07:56:36;9.10;;;2.17;;
72728;SDS011;60843;52.062;4.508;2022-11-06T07:59:05;9.02;;;1.92;;
72728;SDS011;60843;52.062;4.508;2022-11-06T08:01:32;11.55;;;2.25;;
72728;SDS011;60843;52.062;4.508;2022-11-06T08:03:59;7.20;;;1.70;;
72728;SDS011;60843;52.062;4.508;2022-11-06T08:06:24;8.15;;;1.80;;
72728;SDS011;60843;52.062;4.508;2022-11-06T08:08:50;5.60;;;1.58;;
72728;SDS011;60843;52.062;4.508;2022-11-06T08:11:19;5.82;;;1.75;;
72728;SDS011;60843;52.062;4.508;2022-11-06T08:13:44;8.75;;;1.55;;
72728;SDS011;60843;52.062;4.508;2022-11-06T08:16:11;4.20;;;1.60;;
72728;SDS011;60843;52.062;4.508;2022-11-06T08:18:38;8.73;;;1.90;;
72728;SDS011;60843;52.062;4.508;2022-11-06T08:21:05;6.55;;;1.88;;
72728;SDS011;60843;52.062;4.508;2022-11-06T08:23:32;10.10;;;2.05;;
72728;SDS011;60843;52.062;4.508;2022-11-06T08:25:59;9.98;;;2.10;;
72728;SDS011;60843;52.062;4.508;2022-11-06T08:28:26;6.68;;;1.77;;
72728;SDS011;60843;52.062;4.508;2022-11-06T08:30:53;5.68;;;2.00;;
72728;SDS011;60843;52.062;4.508;2022-11-06T08:33:19;4.32;;;1.65;;
72728;SDS011;60843;52.062;4.508;2022-11-06T08:35:48;3.20;;;1.35;;
72728;SDS011;60843;52.062;4.508;2022-11-06T08:38:14;8.65;;;2.10;;
72728;SDS011;60843;52.062;4.508;2022-11-06T08:40:40;9.60;;;2.03;;
72728;SDS011;60843;52.062;4.508;2022-11-06T08:43:09;8.88;;;2.03;;
72728;SDS011;60843;52.062;4.508;2022-11-06T08:45:38;10.93;;;2.22;;
72728;SDS011;60843;52.062;4.508;2022-11-06T08:48:06;8.40;;;2.40;;
72728;SDS011;60843;52.062;4.508;2022-11-06T08:50:38;5.57;;;2.05;;
72728;SDS011;60843;52.062;4.508;2022-11-06T08:53:07;7.88;;;1.88;;
72728;SDS011;60843;52.062;4.508;2022-11-06T08:55:35;12.27;;;1.90;;
72728;SDS011;60843;52.062;4.508;2022-11-06T08:58:06;10.88;;;1.83;;
72728;SDS011;60843;52.062;4.508;2022-11-06T09:00:32;3.63;;;1.60;;
72728;SDS011;60843;52.062;4.508;2022-11-06T09:02:59;8.02;;;2.78;;
72728;SDS011;60843;52.062;4.508;2022-11-06T09:05:30;9.98;;;2.22;;
72728;SDS011;60843;52.062;4.508;2022-11-06T09:08:07;9.10;;;2.05;;
72728;SDS011;60843;52.062;4.508;2022-11-06T09:10:36;9.60;;;1.80;;
72728;SDS011;60843;52.062;4.508;2022-11-06T09:13:08;9.75;;;2.33;;
72728;SDS011;60843;52.062;4.508;2022-11-06T09:15:38;7.03;;;2.08;;
72728;SDS011;60843;52.062;4.508;2022-11-06T09:18:09;7.63;;;2.00;;
72728;SDS011;60843;52.062;4.508;2022-11-06T09:20:38;6.57;;;2.30;;
72728;SDS011;60843;52.062;4.508;2022-11-06T09:23:08;6.45;;;2.30;;
72728;SDS011;60843;52.062;4.508;2022-11-06T09:25:37;5.50;;;2.10;;
72728;SDS011;60843;52.062;4.508;2022-11-06T09:28:03;6.95;;;2.55;;
72728;SDS011;60843;52.062;4.508;2022-11-06T09:30:32;5.57;;;2.22;;
72728;SDS011;60843;52.062;4.508;2022-11-06T09:33:06;6.15;;;1.88;;
72728;SDS011;60843;52.062;4.508;2022-11-06T09:35:32;5.20;;;2.17;;
72728;SDS011;60843;52.062;4.508;2022-11-06T09:38:01;7.72;;;3.15;;
72728;SDS011;60843;52.062;4.508;2022-11-06T09:40:45;7.85;;;2.35;;
72728;SDS011;60843;52.062;4.508;2022-11-06T09:49:19;7.38;;;2.38;;
72728;SDS011;60843;52.062;4.508;2022-11-06T09:52:07;9.82;;;2.17;;
72728;SDS011;60843;52.062;4.508;2022-11-06T09:54:57;11.80;;;1.80;;
72728;SDS011;60843;52.062;4.508;2022-11-06T10:00:18;4.05;;;1.77;;
72728;SDS011;60843;52.062;4.508;2022-11-06T10:02:48;6.30;;;2.00;;
72728;SDS011;60843;52.062;4.508;2022-11-06T10:05:29;5.93;;;1.90;;
72728;SDS011;60843;52.062;4.508;2022-11-06T10:08:02;4.57;;;1.63;;
72728;SDS011;60843;52.062;4.508;2022-11-06T10:13:26;7.80;;;2.20;;
72728;SDS011;60843;52.062;4.508;2022-11-06T10:25:07;4.90;;;1.60;;
72728;SDS011;60843;52.062;4.508;2022-11-06T10:27:40;5.18;;;2.38;;
72728;SDS011;60843;52.062;4.508;2022-11-06T10:30:10;9.23;;;2.05;;
72728;SDS011;60843;52.062;4.508;2022-11-06T10:32:58;9.02;;;2.00;;
72728;SDS011;60843;52.062;4.508;2022-11-06T10:35:49;6.70;;;2.35;;
72728;SDS011;60843;52.062;4.508;2022-11-06T10:38:34;7.43;;;1.85;;
72728;SDS011;60843;52.062;4.508;2022-11-06T10:41:03;9.07;;;2.22;;
72728;SDS011;60843;52.062;4.508;2022-11-06T10:43:48;9.48;;;2.45;;
72728;SDS011;60843;52.062;4.508;2022-11-06T10:46:37;7.32;;;2.47;;
72728;SDS011;60843;52.062;4.508;2022-11-06T10:49:20;6.97;;;2.20;;
72728;SDS011;60843;52.062;4.508;2022-11-06T10:54:48;9.00;;;3.03;;
72728;SDS011;60843;52.062;4.508;2022-11-06T10:57:40;6.88;;;2.78;;
72728;SDS011;60843;52.062;4.508;2022-11-06T11:00:11;6.97;;;2.40;;
72728;SDS011;60843;52.062;4.508;2022-11-06T11:02:39;5.70;;;2.13;;
72728;SDS011;60843;52.062;4.508;2022-11-06T11:05:11;6.57;;;2.10;;
72728;SDS011;60843;52.062;4.508;2022-11-06T11:07:38;10.68;;;1.92;;
72728;SDS011;60843;52.062;4.508;2022-11-06T11:12:48;12.68;;;2.47;;
72728;SDS011;60843;52.062;4.508;2022-11-06T11:15:16;6.97;;;1.98;;
72728;SDS011;60843;52.062;4.508;2022-11-06T11:17:42;6.35;;;1.75;;
72728;SDS011;60843;52.062;4.508;2022-11-06T11:20:43;10.07;;;1.77;;
72728;SDS011;60843;52.062;4.508;2022-11-06T11:23:14;7.20;;;2.10;;
72728;SDS011;60843;52.062;4.508;2022-11-06T11:25:49;8.13;;;1.50;;
72728;SDS011;60843;52.062;4.508;2022-11-06T11:28:22;3.33;;;1.33;;
72728;SDS011;60843;52.062;4.508;2022-11-06T11:33:24;4.47;;;1.80;;
72728;SDS011;60843;52.062;4.508;2022-11-06T11:35:51;6.90;;;1.98;;
72728;SDS011;60843;52.062;4.508;2022-11-06T11:38:17;4.07;;;1.73;;
72728;SDS011;60843;52.062;4.508;2022-11-06T11:40:45;5.60;;;1.55;;
72728;SDS011;60843;52.062;4.508;2022-11-06T11:43:19;8.40;;;1.95;;
72728;SDS011;60843;52.062;4.508;2022-11-06T11:48:53;3.78;;;1.20;;
72728;SDS011;60843;52.062;4.508;2022-11-06T11:51:41;6.40;;;1.48;;
72728;SDS011;60843;52.062;4.508;2022-11-06T11:56:34;5.97;;;1.60;;
72728;SDS011;60843;52.062;4.508;2022-11-06T11:59:16;7.10;;;1.58;;
72728;SDS011;60843;52.062;4.508;2022-11-06T12:01:44;3.55;;;1.30;;
72728;SDS011;60843;52.062;4.508;2022-11-06T12:06:52;3.60;;;1.30;;
72728;SDS011;60843;52.062;4.508;2022-11-06T12:09:20;7.65;;;1.60;;
72728;SDS011;60843;52.062;4.508;2022-11-06T12:11:46;7.63;;;2.15;;
72728;SDS011;60843;52.062;4.508;2022-11-06T12:17:04;9.02;;;2.63;;
72728;SDS011;60843;52.062;4.508;2022-11-06T12:19:37;6.28;;;2.35;;
72728;SDS011;60843;52.062;4.508;2022-11-06T12:22:14;11.70;;;2.55;;
72728;SDS011;60843;52.062;4.508;2022-11-06T12:24:51;6.53;;;2.33;;
72728;SDS011;60843;52.062;4.508;2022-11-06T12:27:22;6.05;;;1.92;;
72728;SDS011;60843;52.062;4.508;2022-11-06T12:32:43;8.63;;;1.90;;
72728;SDS011;60843;52.062;4.508;2022-11-06T12:35:26;7.70;;;1.77;;
72728;SDS011;60843;52.062;4.508;2022-11-06T12:41:14;5.65;;;1.95;;
72728;SDS011;60843;52.062;4.508;2022-11-06T12:43:45;6.18;;;1.60;;
72728;SDS011;60843;52.062;4.508;2022-11-06T12:52:15;5.68;;;1.60;;
72728;SDS011;60843;52.062;4.508;2022-11-06T12:57:30;4.63;;;1.63;;
72728;SDS011;60843;52.062;4.508;2022-11-06T13:05:12;5.05;;;1.90;;
72728;SDS011;60843;52.062;4.508;2022-11-06T13:10:36;3.90;;;1.55;;
72728;SDS011;60843;52.062;4.508;2022-11-06T13:18:17;5.32;;;1.63;;
72728;SDS011;60843;52.062;4.508;2022-11-06T13:20:51;10.15;;;2.00;;
72728;SDS011;60843;52.062;4.508;2022-11-06T13:23:24;8.27;;;1.70;;
72728;SDS011;60843;52.062;4.508;2022-11-06T13:26:02;5.35;;;1.98;;
72728;SDS011;60843;52.062;4.508;2022-11-06T13:30:57;9.10;;;1.67;;
72728;SDS011;60843;52.062;4.508;2022-11-06T13:33:24;6.53;;;2.10;;
72728;SDS011;60843;52.062;4.508;2022-11-06T13:35:51;4.47;;;1.88;;
72728;SDS011;60843;52.062;4.508;2022-11-06T13:38:26;2.85;;;1.50;;
72728;SDS011;60843;52.062;4.508;2022-11-06T13:40:59;8.70;;;2.03;;
72728;SDS011;60843;52.062;4.508;2022-11-06T13:43:29;6.65;;;1.40;;
72728;SDS011;60843;52.062;4.508;2022-11-06T13:46:20;3.50;;;1.60;;
72728;SDS011;60843;52.062;4.508;2022-11-06T13:52:00;6.90;;;1.77;;
72728;SDS011;60843;52.062;4.508;2022-11-06T13:59:59;6.95;;;1.48;;
72728;SDS011;60843;52.062;4.508;2022-11-06T14:08:19;7.90;;;1.90;;
72728;SDS011;60843;52.062;4.508;2022-11-06T14:10:53;5.88;;;2.13;;
72728;SDS011;60843;52.062;4.508;2022-11-06T14:13:33;4.97;;;1.50;;
72728;SDS011;60843;52.062;4.508;2022-11-06T14:16:00;6.63;;;1.75;;
72728;SDS011;60843;52.062;4.508;2022-11-06T14:18:38;6.88;;;2.08;;
72728;SDS011;60843;52.062;4.508;2022-11-06T14:26:52;8.13;;;1.60;;
72728;SDS011;60843;52.062;4.508;2022-11-06T14:34:43;3.95;;;1.75;;
72728;SDS011;60843;52.062;4.508;2022-11-06T14:42:15;3.60;;;1.52;;
72728;SDS011;60843;52.062;4.508;2022-11-06T14:44:57;4.90;;;1.40;;
72728;SDS011;60843;52.062;4.508;2022-11-06T14:47:39;5.60;;;1.38;;
72728;SDS011;60843;52.062;4.508;2022-11-06T14:52:49;6.60;;;2.10;;
72728;SDS011;60843;52.062;4.508;2022-11-06T14:55:27;2.92;;;1.40;;
72728;SDS011;60843;52.062;4.508;2022-11-06T14:58:16;5.45;;;1.77;;
72728;SDS011;60843;52.062;4.508;2022-11-06T15:00:48;3.33;;;1.40;;
72728;SDS011;60843;52.062;4.508;2022-11-06T15:04:18;3.65;;;1.67;;
72728;SDS011;60843;52.062;4.508;2022-11-06T15:11:28;4.75;;;1.75;;
72728;SDS011;60843;52.062;4.508;2022-11-06T15:16:27;3.88;;;1.67;;
72728;SDS011;60843;52.062;4.508;2022-11-06T15:18:57;4.03;;;1.55;;
72728;SDS011;60843;52.062;4.508;2022-11-06T15:21:28;2.58;;;1.80;;
72728;SDS011;60843;52.062;4.508;2022-11-06T15:26:40;3.88;;;1.30;;
72728;SDS011;60843;52.062;4.508;2022-11-06T15:31:43;2.75;;;1.23;;
72728;SDS011;60843;52.062;4.508;2022-11-06T15:34:22;5.57;;;1.42;;
72728;SDS011;60843;52.062;4.508;2022-11-06T15:37:07;9.43;;;1.80;;
72728;SDS011;60843;52.062;4.508;2022-11-06T15:39:39;5.57;;;1.75;;
72728;SDS011;60843;52.062;4.508;2022-11-06T15:42:12;2.67;;;1.60;;
72728;SDS011;60843;52.062;4.508;2022-11-06T15:44:40;6.03;;;1.92;;
72728;SDS011;60843;52.062;4.508;2022-11-06T15:47:29;9.43;;;2.40;;
72728;SDS011;60843;52.062;4.508;2022-11-06T15:52:42;10.77;;;1.92;;
72728;SDS011;60843;52.062;4.508;2022-11-06T15:55:12;4.35;;;1.30;;
72728;SDS011;60843;52.062;4.508;2022-11-06T15:58:03;7.22;;;1.85;;
72728;SDS011;60843;52.062;4.508;2022-11-06T16:00:51;5.15;;;2.03;;
72728;SDS011;60843;52.062;4.508;2022-11-06T16:03:18;4.43;;;1.55;;
72728;SDS011;60843;52.062;4.508;2022-11-06T16:05:45;8.77;;;1.85;;
72728;SDS011;60843;52.062;4.508;2022-11-06T16:08:16;6.70;;;1.80;;
72728;SDS011;60843;52.062;4.508;2022-11-06T16:10:43;8.20;;;2.40;;
72728;SDS011;60843;52.062;4.508;2022-11-06T16:13:10;8.65;;;2.30;;
72728;SDS011;60843;52.062;4.508;2022-11-06T16:21:06;6.00;;;1.75;;
72728;SDS011;60843;52.062;4.508;2022-11-06T16:23:47;3.20;;;1.80;;
72728;SDS011;60843;52.062;4.508;2022-11-06T16:26:22;5.20;;;2.00;;
72728;SDS011;60843;52.062;4.508;2022-11-06T16:29:10;4.75;;;1.90;;
72728;SDS011;60843;52.062;4.508;2022-11-06T16:31:40;4.50;;;2.47;;
72728;SDS011;60843;52.062;4.508;2022-11-06T16:34:17;3.75;;;2.28;;
72728;SDS011;60843;52.062;4.508;2022-11-06T16:36:48;5.63;;;1.92;;
72728;SDS011;60843;52.062;4.508;2022-11-06T16:44:30;7.88;;;2.80;;
72728;SDS011;60843;52.062;4.508;2022-11-06T16:55:06;6.20;;;3.28;;
72728;SDS011;60843;52.062;4.508;2022-11-06T16:57:49;7.85;;;3.28;;
72728;SDS011;60843;52.062;4.508;2022-11-06T17:02:50;7.53;;;3.50;;
72728;SDS011;60843;52.062;4.508;2022-11-06T17:05:23;6.35;;;3.40;;
72728;SDS011;60843;52.062;4.508;2022-11-06T17:08:36;7.18;;;3.10;;
72728;SDS011;60843;52.062;4.508;2022-11-06T17:10:46;9.68;;;3.78;;
72728;SDS011;60843;52.062;4.508;2022-11-06T17:13:26;7.40;;;4.10;;
72728;SDS011;60843;52.062;4.508;2022-11-06T17:15:53;8.70;;;4.28;;
72728;SDS011;60843;52.062;4.508;2022-11-06T17:18:26;7.80;;;4.10;;
72728;SDS011;60843;52.062;4.508;2022-11-06T17:21:04;8.98;;;3.97;;
72728;SDS011;60843;52.062;4.508;2022-11-06T17:23:32;12.98;;;4.72;;
72728;SDS011;60843;52.062;4.508;2022-11-06T17:26:02;4.88;;;3.35;;
72728;SDS011;60843;52.062;4.508;2022-11-06T17:31:08;9.18;;;4.90;;
72728;SDS011;60843;52.062;4.508;2022-11-06T17:33:38;8.05;;;4.40;;
72728;SDS011;60843;52.062;4.508;2022-11-06T17:36:14;10.68;;;4.28;;
72728;SDS011;60843;52.062;4.508;2022-11-06T17:38:51;9.90;;;4.55;;
72728;SDS011;60843;52.062;4.508;2022-11-06T17:41:18;9.35;;;4.32;;
72728;SDS011;60843;52.062;4.508;2022-11-06T17:44:13;8.95;;;4.47;;
72728;SDS011;60843;52.062;4.508;2022-11-06T17:46:45;6.68;;;3.67;;
72728;SDS011;60843;52.062;4.508;2022-11-06T17:49:19;8.82;;;4.07;;
72728;SDS011;60843;52.062;4.508;2022-11-06T17:51:45;7.32;;;4.38;;
72728;SDS011;60843;52.062;4.508;2022-11-06T17:54:22;7.13;;;4.00;;
72728;SDS011;60843;52.062;4.508;2022-11-06T17:56:54;7.03;;;3.97;;
72728;SDS011;60843;52.062;4.508;2022-11-06T17:59:26;9.90;;;5.20;;
72728;SDS011;60843;52.062;4.508;2022-11-06T18:02:03;6.72;;;4.38;;
72728;SDS011;60843;52.062;4.508;2022-11-06T18:04:31;7.82;;;4.30;;
72728;SDS011;60843;52.062;4.508;2022-11-06T18:07:00;9.10;;;4.93;;
72728;SDS011;60843;52.062;4.508;2022-11-06T18:09:27;6.57;;;4.57;;
72728;SDS011;60843;52.062;4.508;2022-11-06T18:11:54;8.88;;;5.43;;
72728;SDS011;60843;52.062;4.508;2022-11-06T18:14:20;7.78;;;5.15;;